Time;durP1;ratioP1;P1;durP2;ratioP2;P2;SDS_P1;SDS_P2;PMS_P1;PMS_P2;Temp;Humidity;BMP_temperature;BMP_pressure;BME280_temperature;BME280_humidity;BME280_pressure;Samples;Min_cycle;Max_cycle;Signal;HPM_P1;HPM_P2
2023/04/15 00:00:28;;;;;;;;;;;;;;;2.31;100.00;95641.75;5049090;28;19984;-67
2023/04/15 00:02:53;;;;;;;;;;;;;;;2.42;100.00;95642.88;5015819;28;20682;-68
2023/04/15 00:05:19;;;;;;;;;;;;;;;2.52;100.00;95645.13;5021177;28;19925;-67
2023/04/15 00:07:46;;;;;;;;;;;;;;;2.52;100.00;95647.00;5043885;28;19917;-67
2023/04/15 00:10:11;;;;;;;;;;;;;;;2.50;100.00;95647.34;5036187;28;20392;-68
2023/04/15 00:12:36;;;;;;;;;;;;;;;2.46;100.00;95655.34;5044225;28;19989;-68
2023/04/15 00:15:02;;;;;;;;;;;;;;;2.36;100.00;95647.72;5044549;28;20512;-68
2023/04/15 00:17:29;;;;;;;;;;;;;;;2.40;100.00;95650.53;5041952;28;19924;-68
2023/04/15 00:19:54;;;;;;;;;;;;;;;2.25;100.00;95643.88;5043946;28;20003;-68
2023/04/15 00:22:20;;;;;;;;;;;;;;;2.26;100.00;95646.25;5039436;28;19917;-68
2023/04/15 00:24:45;;;;;;;;;;;;;;;2.22;100.00;95644.56;5043883;28;19976;-65
2023/04/15 00:27:11;;;;;;;;;;;;;;;2.30;100.00;95649.06;5037657;28;19916;-68
2023/04/15 00:29:36;;;;;;;;;;;;;;;2.26;100.00;95640.06;5043535;28;20019;-68
2023/04/15 00:32:01;;;;;;;;;;;;;;;2.23;100.00;95646.13;5042665;28;19924;-67
2023/04/15 00:34:27;;;;;;;;;;;;;;;2.23;100.00;95640.72;5021860;28;19923;-67
2023/04/15 00:36:53;;;;;;;;;;;;;;;2.22;100.00;95639.94;5042893;28;19916;-69
2023/04/15 00:39:18;;;;;;;;;;;;;;;2.20;100.00;95641.44;5018631;28;19921;-67
2023/04/15 00:41:44;;;;;;;;;;;;;;;2.17;100.00;95642.88;5043236;28;19966;-69
2023/04/15 00:44:10;;;;;;;;;;;;;;;2.14;100.00;95640.84;5046183;28;19966;-68
2023/04/15 00:46:36;;;;;;;;;;;;;;;2.21;100.00;95641.06;5062052;28;19920;-67
2023/04/15 00:49:03;;;;;;;;;;;;;;;2.20;100.00;95639.50;5044575;28;19946;-67
2023/04/15 00:51:29;;;;;;;;;;;;;;;2.20;100.00;95644.91;5052055;28;19924;-67
2023/04/15 00:53:55;;;;;;;;;;;;;;;2.11;100.00;95638.84;5050967;28;19932;-68
2023/04/15 00:56:23;;;;;;;;;;;;;;;1.98;100.00;95640.75;5037270;28;19921;-67
2023/04/15 00:58:48;;;;;;;;;;;;;;;1.86;100.00;95640.72;5009054;28;20051;-67
2023/04/15 01:01:14;;;;;;;;;;;;;;;1.84;100.00;95643.75;5036768;28;20544;-68
2023/04/15 01:03:40;;;;;;;;;;;;;;;1.85;100.00;95644.53;5043137;28;19921;-68
2023/04/15 01:06:06;;;;;;;;;;;;;;;1.78;100.00;95653.19;5036324;28;19924;-66
2023/04/15 01:08:31;;;;;;;;;;;;;;;1.73;100.00;95650.72;5021803;28;19971;-68
2023/04/15 01:11:00;;;;;;;;;;;;;;;1.68;100.00;95640.13;5024536;28;19944;-68
2023/04/15 01:13:25;;;;;;;;;;;;;;;1.68;100.00;95646.31;5037504;28;19917;-68
2023/04/15 01:15:51;;;;;;;;;;;;;;;1.65;100.00;95643.50;5042803;28;19923;-68
2023/04/15 01:18:17;;;;;;;;;;;;;;;1.57;100.00;95642.47;5047679;28;19921;-68
2023/04/15 01:20:42;;;;;;;;;;;;;;;1.56;100.00;95653.59;5043791;28;19988;-67
2023/04/15 01:23:08;;;;;;;;;;;;;;;1.49;100.00;95646.03;5043250;28;19924;-65
2023/04/15 01:25:33;;;;;;;;;;;;;;;1.43;100.00;95650.09;5044435;28;19916;-67
2023/04/15 01:27:59;;;;;;;;;;;;;;;1.42;100.00;95645.81;5042596;28;19927;-67
2023/04/15 01:30:25;;;;;;;;;;;;;;;1.49;100.00;95652.22;5036979;28;19916;-67
2023/04/15 01:32:51;;;;;;;;;;;;;;;1.49;100.00;95646.81;5043096;28;19939;-67
2023/04/15 01:35:17;;;;;;;;;;;;;;;1.53;100.00;95642.34;5037049;28;19917;-68
2023/04/15 01:37:42;;;;;;;;;;;;;;;1.50;100.00;95644.94;5041713;28;19921;-68
2023/04/15 01:40:08;;;;;;;;;;;;;;;1.49;100.00;95635.25;5037026;28;19921;-68
2023/04/15 01:42:34;;;;;;;;;;;;;;;1.40;100.00;95642.66;5042869;28;19921;-66
2023/04/15 01:44:59;;;;;;;;;;;;;;;1.29;100.00;95639.59;5065754;28;19940;-67
2023/04/15 01:47:24;;;;;;;;;;;;;;;1.21;100.00;95640.47;5052141;28;19943;-69
2023/04/15 01:49:50;;;;;;;;;;;;;;;1.07;100.00;95649.63;5042480;28;19929;-67
2023/04/15 01:52:15;;;;;;;;;;;;;;;1.04;100.00;95655.66;5035131;28;19939;-68
2023/04/15 01:54:41;;;;;;;;;;;;;;;1.03;100.00;95647.94;5065230;28;19924;-67
2023/04/15 01:57:06;;;;;;;;;;;;;;;0.81;100.00;95654.44;5060329;28;19928;-66
2023/04/15 01:59:31;;;;;;;;;;;;;;;0.60;100.00;95652.53;5049213;28;19916;-67
2023/04/15 02:01:57;;;;;;;;;;;;;;;0.55;100.00;95660.81;5063957;28;19917;-67
2023/04/15 02:04:22;;;;;;;;;;;;;;;0.71;100.00;95652.94;5056202;28;19912;-67
2023/04/15 02:06:47;;;;;;;;;;;;;;;0.81;100.00;95646.34;5042697;28;19924;-67
2023/04/15 02:09:13;;;;;;;;;;;;;;;0.97;100.00;95654.63;5036378;28;19970;-67
2023/04/15 02:11:38;;;;;;;;;;;;;;;0.97;100.00;95658.09;5060949;28;20623;-67
2023/04/15 02:14:05;;;;;;;;;;;;;;;0.95;100.00;95663.84;5057362;28;20470;-66
2023/04/15 02:16:31;;;;;;;;;;;;;;;0.88;100.00;95665.47;5042899;28;20030;-67
2023/04/15 02:18:56;;;;;;;;;;;;;;;0.91;100.00;95671.00;5043530;28;19917;-67
2023/04/15 02:21:22;;;;;;;;;;;;;;;0.80;100.00;95664.44;5055544;28;19924;-68
2023/04/15 02:23:47;;;;;;;;;;;;;;;0.99;100.00;95660.47;5043875;28;19961;-66
2023/04/15 02:26:13;;;;;;;;;;;;;;;0.95;100.00;95665.72;5056467;28;19924;-67
2023/04/15 02:28:38;;;;;;;;;;;;;;;0.95;100.00;95663.84;5061259;28;19927;-67
2023/04/15 02:31:06;;;;;;;;;;;;;;;0.87;100.00;95663.91;5062987;28;19917;-66
2023/04/15 02:33:32;;;;;;;;;;;;;;;0.83;100.00;95669.19;5058174;28;20042;-67
2023/04/15 02:35:58;;;;;;;;;;;;;;;0.85;100.00;95666.16;5051918;28;19916;-66
2023/04/15 02:38:23;;;;;;;;;;;;;;;0.79;100.00;95657.44;5025275;28;19917;-67
2023/04/15 02:40:49;;;;;;;;;;;;;;;0.79;100.00;95659.38;5043274;28;19928;-66
2023/04/15 02:43:18;;;;;;;;;;;;;;;0.86;100.00;95656.94;5036420;28;19952;-68
2023/04/15 02:45:44;;;;;;;;;;;;;;;0.82;100.00;95661.41;5073412;28;20039;-68
2023/04/15 02:48:09;;;;;;;;;;;;;;;0.74;100.00;95657.66;5071525;28;19920;-68
2023/04/15 02:50:36;;;;;;;;;;;;;;;0.69;100.00;95657.88;5073766;28;19938;-68
2023/04/15 02:53:02;;;;;;;;;;;;;;;0.73;100.00;95666.88;5033519;28;20004;-67
2023/04/15 02:55:27;;;;;;;;;;;;;;;0.74;100.00;95668.44;5055255;28;20412;-67
2023/04/15 02:57:53;;;;;;;;;;;;;;;0.76;100.00;95667.00;5060945;28;19916;-66
2023/04/15 03:00:19;;;;;;;;;;;;;;;0.78;100.00;95661.28;5055367;28;19917;-68
2023/04/15 03:02:45;;;;;;;;;;;;;;;0.78;100.00;95663.97;5042824;28;19916;-68
2023/04/15 03:05:11;;;;;;;;;;;;;;;0.78;100.00;95660.50;5054805;28;20015;-68
2023/04/15 03:07:37;;;;;;;;;;;;;;;0.69;100.00;95653.25;5059207;28;19920;-69
2023/04/15 03:10:02;;;;;;;;;;;;;;;0.83;100.00;95665.66;5060759;28;19974;-68
2023/04/15 03:12:29;;;;;;;;;;;;;;;0.80;100.00;95664.44;5062765;28;19920;-68
2023/04/15 03:14:54;;;;;;;;;;;;;;;0.73;100.00;95664.94;5064171;28;19917;-68
2023/04/15 03:17:20;;;;;;;;;;;;;;;0.69;100.00;95663.25;5057540;28;20271;-67
2023/04/15 03:19:45;;;;;;;;;;;;;;;0.70;100.00;95662.94;5065481;28;20365;-68
2023/04/15 03:22:11;;;;;;;;;;;;;;;0.70;100.00;95667.50;5060272;28;19970;-67
2023/04/15 03:24:36;;;;;;;;;;;;;;;0.56;100.00;95665.88;5064954;28;20419;-66
2023/04/15 03:27:02;;;;;;;;;;;;;;;0.45;100.00;95667.38;5063019;28;20296;-66
2023/04/15 03:29:27;;;;;;;;;;;;;;;0.42;100.00;95668.00;5045849;28;19927;-67
2023/04/15 03:31:52;;;;;;;;;;;;;;;0.47;100.00;95656.25;5064908;28;19966;-68
2023/04/15 03:34:18;;;;;;;;;;;;;;;0.46;100.00;95665.47;5059803;28;19916;-67
2023/04/15 03:36:43;;;;;;;;;;;;;;;0.36;100.00;95661.22;5062995;28;19917;-67
2023/04/15 03:39:09;;;;;;;;;;;;;;;0.28;100.00;95668.25;5058806;28;20381;-67
2023/04/15 03:41:34;;;;;;;;;;;;;;;0.18;100.00;95668.59;5064142;28;20398;-68
2023/04/15 03:43:59;;;;;;;;;;;;;;;0.25;100.00;95662.72;5055792;28;19921;-67
2023/04/15 03:46:25;;;;;;;;;;;;;;;0.25;100.00;95670.81;5059063;28;19921;-67
2023/04/15 03:48:50;;;;;;;;;;;;;;;0.24;100.00;95669.25;5063226;28;19920;-67
2023/04/15 03:51:16;;;;;;;;;;;;;;;0.20;100.00;95669.09;5052244;28;20362;-66
2023/04/15 03:53:41;;;;;;;;;;;;;;;0.02;100.00;95667.56;5029821;28;19927;-65
2023/04/15 03:56:06;;;;;;;;;;;;;;;-0.01;100.00;95677.88;5058070;28;19939;-66
2023/04/15 03:58:32;;;;;;;;;;;;;;;0.01;100.00;95671.41;5064824;28;19931;-66
2023/04/15 04:00:57;;;;;;;;;;;;;;;-0.02;100.00;95676.31;5064775;28;19947;-67
2023/04/15 04:03:22;;;;;;;;;;;;;;;0.05;100.00;95670.41;5058730;28;20011;-67
2023/04/15 04:05:47;;;;;;;;;;;;;;;-0.14;100.00;95673.50;5062621;28;19964;-66
2023/04/15 04:08:13;;;;;;;;;;;;;;;-0.54;100.00;95681.06;5058139;28;19916;-67
2023/04/15 04:10:39;;;;;;;;;;;;;;;-0.55;100.00;95685.66;5064208;28;19935;-68
2023/04/15 04:13:06;;;;;;;;;;;;;;;-0.37;100.00;95688.31;5057477;28;20296;-66
2023/04/15 04:15:32;;;;;;;;;;;;;;;-0.19;100.00;95681.75;5063638;28;19924;-66
2023/04/15 04:17:58;;;;;;;;;;;;;;;-0.57;100.00;95685.19;5063633;28;19916;-67
2023/04/15 04:20:23;;;;;;;;;;;;;;;-0.81;100.00;95683.81;5057578;28;20016;-68
2023/04/15 04:22:50;;;;;;;;;;;;;;;-0.70;100.00;95688.84;5063589;28;19920;-68
2023/04/15 04:25:16;;;;;;;;;;;;;;;-0.63;100.00;95689.13;5039810;28;19917;-68
2023/04/15 04:27:41;;;;;;;;;;;;;;;-0.49;100.00;95692.44;5063398;28;19978;-67
2023/04/15 04:30:07;;;;;;;;;;;;;;;-0.41;100.00;95693.53;5057679;28;19964;-67
2023/04/15 04:32:33;;;;;;;;;;;;;;;-0.23;100.00;95689.69;5045812;28;19916;-68
2023/04/15 04:34:59;;;;;;;;;;;;;;;-0.18;100.00;95682.53;5044564;28;19921;-67
2023/04/15 04:37:24;;;;;;;;;;;;;;;-0.22;100.00;95685.09;5057939;28;20297;-68
2023/04/15 04:39:50;;;;;;;;;;;;;;;-0.22;100.00;95687.78;5063098;28;19923;-68
2023/04/15 04:42:16;;;;;;;;;;;;;;;-0.13;100.00;95690.44;5055126;28;19986;-68
2023/04/15 04:44:41;;;;;;;;;;;;;;;-0.10;100.00;95690.59;5053757;28;20319;-68
2023/04/15 04:47:06;;;;;;;;;;;;;;;-0.22;100.00;95688.59;5074200;28;20195;-65
2023/04/15 04:49:32;;;;;;;;;;;;;;;-0.17;100.00;95684.13;5079471;28;19925;-67
2023/04/15 04:51:57;;;;;;;;;;;;;;;-0.20;100.00;95690.94;5048747;28;19921;-68
2023/04/15 04:54:22;;;;;;;;;;;;;;;-0.25;100.00;95680.38;5046470;28;20511;-67
2023/04/15 04:56:48;;;;;;;;;;;;;;;-0.08;100.00;95688.38;5043843;28;19920;-66
2023/04/15 04:59:13;;;;;;;;;;;;;;;0.06;100.00;95688.16;5037951;28;19995;-68
2023/04/15 05:01:39;;;;;;;;;;;;;;;0.06;100.00;95690.84;5041725;28;19963;-67
2023/04/15 05:04:05;;;;;;;;;;;;;;;-0.05;100.00;95701.19;5038021;28;19921;-66
2023/04/15 05:06:31;;;;;;;;;;;;;;;-0.31;100.00;95695.88;5049267;28;19939;-68
2023/04/15 05:08:56;;;;;;;;;;;;;;;-0.36;100.00;95696.06;5052136;28;20025;-67
2023/04/15 05:11:22;;;;;;;;;;;;;;;-0.17;100.00;95693.00;5049705;28;20697;-67
2023/04/15 05:13:47;;;;;;;;;;;;;;;0.25;100.00;95692.34;5062833;28;20086;-68
2023/04/15 05:16:12;;;;;;;;;;;;;;;0.82;100.00;95691.84;5042829;28;19924;-67
2023/04/15 05:18:38;;;;;;;;;;;;;;;1.87;100.00;95689.00;5042773;28;20336;-68
2023/04/15 05:21:03;;;;;;;;;;;;;;;2.84;100.00;95694.72;5040199;28;19917;-67
2023/04/15 05:23:28;;;;;;;;;;;;;;;3.11;100.00;95691.63;5040137;28;19921;-67
2023/04/15 05:25:54;;;;;;;;;;;;;;;3.96;98.72;95695.06;5042176;28;19951;-66
2023/04/15 05:28:19;;;;;;;;;;;;;;;3.99;93.18;95691.69;5037318;28;19925;-67
2023/04/15 05:30:44;;;;;;;;;;;;;;;4.66;93.77;95691.72;5041913;28;19920;-67
2023/04/15 05:33:10;;;;;;;;;;;;;;;5.75;89.08;95695.53;5034737;28;19920;-67
2023/04/15 05:35:35;;;;;;;;;;;;;;;6.38;84.93;95697.06;5041993;28;19943;-68
2023/04/15 05:38:00;;;;;;;;;;;;;;;6.86;75.64;95705.56;5041691;28;19920;-67
2023/04/15 05:40:27;;;;;;;;;;;;;;;7.17;69.02;95708.34;5036782;28;19917;-68
2023/04/15 05:42:52;;;;;;;;;;;;;;;7.17;74.53;95703.66;5023730;28;19924;-68
2023/04/15 05:45:17;;;;;;;;;;;;;;;7.76;71.25;95698.56;5053313;28;19916;-67
2023/04/15 05:47:43;;;;;;;;;;;;;;;8.72;65.03;95706.09;5061596;28;20519;-67
2023/04/15 05:50:08;;;;;;;;;;;;;;;9.49;61.87;95706.16;5056482;28;19974;-67
2023/04/15 05:52:34;;;;;;;;;;;;;;;9.48;59.24;95712.00;5030549;28;19963;-67
2023/04/15 05:54:59;;;;;;;;;;;;;;;8.97;65.65;95708.22;5052888;28;19979;-68
2023/04/15 05:57:25;;;;;;;;;;;;;;;8.36;70.41;95699.53;5038534;28;19942;-67
2023/04/15 05:59:51;;;;;;;;;;;;;;;9.12;62.59;95698.94;5061808;28;19916;-67
2023/04/15 06:02:17;;;;;;;;;;;;;;;9.21;65.25;95698.59;5056550;28;19924;-67
2023/04/15 06:04:42;;;;;;;;;;;;;;;7.58;68.48;95692.09;5061068;28;20320;-66
2023/04/15 06:07:08;;;;;;;;;;;;;;;7.91;69.68;95693.25;5056127;28;19924;-66
2023/04/15 06:09:33;;;;;;;;;;;;;;;5.72;78.24;95693.53;5061101;28;19921;-65
2023/04/15 06:11:58;;;;;;;;;;;;;;;5.98;83.79;95694.78;5061493;28;19924;-69
2023/04/15 06:14:24;;;;;;;;;;;;;;;5.82;81.87;95690.22;5056538;28;19917;-68
2023/04/15 06:16:49;;;;;;;;;;;;;;;6.46;82.60;95695.22;5044060;28;19920;-68
2023/04/15 06:19:14;;;;;;;;;;;;;;;7.54;79.02;95697.50;5056702;28;19939;-67
2023/04/15 06:21:40;;;;;;;;;;;;;;;8.85;68.15;95703.84;5062588;28;20003;-67
2023/04/15 06:24:06;;;;;;;;;;;;;;;9.38;64.35;95697.91;5055614;28;19921;-67
2023/04/15 06:26:31;;;;;;;;;;;;;;;10.03;64.24;95695.41;5061831;28;20034;-67
2023/04/15 06:28:57;;;;;;;;;;;;;;;9.95;61.91;95702.03;5061353;28;20011;-67
2023/04/15 06:31:22;;;;;;;;;;;;;;;9.45;60.98;95702.59;5037767;28;19920;-68
2023/04/15 06:33:47;;;;;;;;;;;;;;;9.28;62.28;95703.31;5061561;28;19927;-67
2023/04/15 06:36:12;;;;;;;;;;;;;;;8.65;63.69;95710.72;5055849;28;19966;-67
2023/04/15 06:38:38;;;;;;;;;;;;;;;7.18;73.71;95701.72;5042230;28;19924;-66
2023/04/15 06:41:03;;;;;;;;;;;;;;;6.81;78.71;95702.38;5057068;28;19920;-65
2023/04/15 06:43:29;;;;;;;;;;;;;;;5.70;86.06;95702.03;5048938;28;19932;-65
2023/04/15 06:45:55;;;;;;;;;;;;;;;6.58;81.56;95711.34;5060452;28;19921;-67
2023/04/15 06:48:21;;;;;;;;;;;;;;;6.18;87.12;95714.59;5037749;28;19921;-66
2023/04/15 06:50:46;;;;;;;;;;;;;;;6.76;82.64;95716.31;5058804;28;20400;-66
2023/04/15 06:53:11;;;;;;;;;;;;;;;7.00;83.18;95712.38;5042666;28;19916;-67
2023/04/15 06:55:37;;;;;;;;;;;;;;;6.75;82.52;95720.16;5041730;28;20009;-67
2023/04/15 06:58:02;;;;;;;;;;;;;;;7.11;83.03;95713.28;5059933;28;19916;-66
2023/04/15 07:00:27;;;;;;;;;;;;;;;8.17;76.66;95712.19;5057590;28;19920;-67
2023/04/15 07:02:54;;;;;;;;;;;;;;;9.04;73.34;95708.25;5060918;28;19960;-67
2023/04/15 07:05:19;;;;;;;;;;;;;;;9.73;67.89;95714.84;5055737;28;20726;-67
2023/04/15 07:07:44;;;;;;;;;;;;;;;10.40;65.28;95718.94;5060539;28;19920;-67
2023/04/15 07:10:10;;;;;;;;;;;;;;;9.52;65.45;95716.31;5037656;28;19920;-67
2023/04/15 07:12:36;;;;;;;;;;;;;;;8.45;73.36;95708.22;5042693;28;19917;-66
2023/04/15 07:15:02;;;;;;;;;;;;;;;8.92;71.74;95714.81;5060616;28;20006;-66
2023/04/15 07:17:27;;;;;;;;;;;;;;;8.92;70.67;95722.22;5037175;28;19923;-68
2023/04/15 07:19:53;;;;;;;;;;;;;;;9.02;71.48;95712.53;5084510;22;19924;-69
2023/04/15 07:22:18;;;;;;;;;;;;;;;7.63;78.37;95711.66;5053173;28;19963;-70
2023/04/15 07:24:43;;;;;;;;;;;;;;;7.65;80.00;95712.06;5061301;28;19917;-68
2023/04/15 07:27:08;;;;;;;;;;;;;;;8.83;73.74;95711.63;5055625;28;19967;-69
2023/04/15 07:29:34;;;;;;;;;;;;;;;9.17;72.32;95706.78;5061490;28;20365;-68
2023/04/15 07:31:59;;;;;;;;;;;;;;;8.19;73.74;95709.91;5062289;28;19920;-70
2023/04/15 07:34:24;;;;;;;;;;;;;;;7.94;77.24;95703.41;5038077;28;20027;-69
2023/04/15 07:36:50;;;;;;;;;;;;;;;8.03;76.35;95709.34;5060460;28;19917;-69
2023/04/15 07:39:19;;;;;;;;;;;;;;;7.65;81.98;95711.25;5056059;28;20371;-74
2023/04/15 07:41:44;;;;;;;;;;;;;;;8.81;76.29;95713.94;5058790;28;19924;-68
2023/04/15 07:44:10;;;;;;;;;;;;;;;9.66;67.46;95709.34;5055906;28;19916;-69
2023/04/15 07:46:37;;;;;;;;;;;;;;;10.21;66.13;95709.13;5055730;28;19939;-69
2023/04/15 07:49:02;;;;;;;;;;;;;;;8.88;71.06;95713.22;5057611;28;20006;-69
2023/04/15 07:51:28;;;;;;;;;;;;;;;10.42;62.96;95711.13;5055345;28;20402;-67
2023/04/15 07:53:53;;;;;;;;;;;;;;;10.17;62.07;95710.28;5039852;28;19917;-68
2023/04/15 07:56:19;;;;;;;;;;;;;;;11.04;60.48;95712.69;5057386;28;19916;-68
2023/04/15 07:58:44;;;;;;;;;;;;;;;11.15;59.70;95700.94;5064154;28;20019;-68
2023/04/15 08:01:10;;;;;;;;;;;;;;;11.63;57.80;95708.63;5073260;28;19916;-69
2023/04/15 08:03:36;;;;;;;;;;;;;;;12.19;54.80;95709.56;5084246;28;19916;-68
2023/04/15 08:06:01;;;;;;;;;;;;;;;12.20;53.18;95699.38;5064515;28;19956;-69
2023/04/15 08:08:27;;;;;;;;;;;;;;;10.49;58.10;95705.66;5040154;28;19916;-69
2023/04/15 08:10:52;;;;;;;;;;;;;;;9.84;60.53;95693.00;5064015;28;19974;-68
2023/04/15 08:13:17;;;;;;;;;;;;;;;11.08;57.14;95701.72;5057684;28;19932;-70
2023/04/15 08:15:43;;;;;;;;;;;;;;;12.45;52.60;95698.44;5062454;28;20365;-70
2023/04/15 08:18:08;;;;;;;;;;;;;;;13.00;50.08;95700.34;5039560;28;20355;-69
2023/04/15 08:20:34;;;;;;;;;;;;;;;13.27;49.33;95697.72;5063183;28;19963;-68
2023/04/15 08:22:59;;;;;;;;;;;;;;;13.74;48.97;95689.75;5046139;28;19917;-68
2023/04/15 08:25:25;;;;;;;;;;;;;;;13.91;48.19;95696.22;5057921;28;19926;-68
2023/04/15 08:27:50;;;;;;;;;;;;;;;14.97;46.08;95686.03;5047070;28;19916;-69
2023/04/15 08:30:15;;;;;;;;;;;;;;;15.46;43.74;95688.28;5058471;28;20438;-68
2023/04/15 08:32:41;;;;;;;;;;;;;;;15.73;42.16;95693.69;5062951;28;19986;-69
2023/04/15 08:35:06;;;;;;;;;;;;;;;15.46;43.38;95693.81;5057510;28;19917;-69
2023/04/15 08:37:32;;;;;;;;;;;;;;;16.08;42.13;95688.66;5044404;28;20396;-69
2023/04/15 08:39:57;;;;;;;;;;;;;;;16.32;41.10;95689.31;5068295;28;20012;-69
2023/04/15 08:42:35;;;;;;;;;;;;;;;16.52;40.90;95685.72;5063820;28;19913;-69
2023/04/15 08:45:02;;;;;;;;;;;;;;;17.10;40.00;95691.44;5073488;28;19917;-69
2023/04/15 08:47:29;;;;;;;;;;;;;;;14.44;44.94;95682.91;5085363;28;19916;-69
2023/04/15 08:49:57;;;;;;;;;;;;;;;14.36;46.58;95689.72;5063690;28;19924;-69
2023/04/15 08:52:23;;;;;;;;;;;;;;;15.12;45.07;95694.03;5060583;28;19925;-70
2023/04/15 08:54:49;;;;;;;;;;;;;;;15.18;45.34;95686.84;5062704;28;20436;-69
2023/04/15 08:57:15;;;;;;;;;;;;;;;14.92;46.25;95689.25;5057304;28;20019;-69
2023/04/15 08:59:41;;;;;;;;;;;;;;;14.03;47.64;95694.13;5062831;28;19921;-68
2023/04/15 09:02:07;;;;;;;;;;;;;;;13.20;49.39;95698.56;5057602;28;19916;-69
2023/04/15 09:04:32;;;;;;;;;;;;;;;12.47;50.70;95696.06;5062542;28;19923;-68
2023/04/15 09:06:57;;;;;;;;;;;;;;;12.75;51.28;95695.06;5059080;28;19924;-68
2023/04/15 09:09:23;;;;;;;;;;;;;;;12.67;50.53;95705.31;5057462;28;20281;-68
2023/04/15 09:11:50;;;;;;;;;;;;;;;12.21;52.10;95698.19;5062756;28;19939;-68
2023/04/15 09:14:16;;;;;;;;;;;;;;;12.20;52.28;95694.66;5057765;28;19916;-69
2023/04/15 09:16:57;;;;;;;;;;;;;;;12.38;52.56;95697.28;5044373;28;20257;-69
2023/04/15 09:19:24;;;;;;;;;;;;;;;12.42;52.75;95700.81;5032367;28;20190;-68
2023/04/15 09:21:52;;;;;;;;;;;;;;;12.30;53.29;95700.47;5014582;28;19917;-68
2023/04/15 09:24:17;;;;;;;;;;;;;;;12.46;52.03;95710.97;5036755;28;20011;-69
2023/04/15 09:26:43;;;;;;;;;;;;;;;12.30;51.87;95704.00;5062472;28;20016;-69
2023/04/15 09:29:09;;;;;;;;;;;;;;;12.26;52.78;95703.22;5037814;28;19927;-69
2023/04/15 09:31:35;;;;;;;;;;;;;;;11.98;53.04;95704.19;5044883;28;19966;-69
2023/04/15 09:34:01;;;;;;;;;;;;;;;11.77;53.58;95702.31;5062010;28;20332;-69
2023/04/15 09:36:29;;;;;;;;;;;;;;;11.62;54.51;95709.81;5057407;28;19916;-69
2023/04/15 09:38:58;;;;;;;;;;;;;;;11.60;54.20;95704.72;5061966;28;19924;-69
2023/04/15 09:41:24;;;;;;;;;;;;;;;11.94;53.75;95706.97;5056779;28;20377;-68
2023/04/15 09:43:49;;;;;;;;;;;;;;;11.67;53.62;95712.91;5061899;28;20381;-69
2023/04/15 09:46:15;;;;;;;;;;;;;;;11.04;55.38;95701.72;5056370;28;19924;-69
2023/04/15 09:48:40;;;;;;;;;;;;;;;11.13;55.52;95708.75;5061679;28;20048;-69
2023/04/15 09:51:05;;;;;;;;;;;;;;;11.49;54.31;95712.22;5038645;28;20393;-68
2023/04/15 09:53:33;;;;;;;;;;;;;;;11.65;53.92;95711.78;5060108;28;20372;-68
2023/04/15 09:56:02;;;;;;;;;;;;;;;11.64;53.85;95710.97;5060574;28;20245;-69
2023/04/15 09:58:27;;;;;;;;;;;;;;;11.29;54.05;95712.66;5058713;28;20018;-67
2023/04/15 10:00:54;;;;;;;;;;;;;;;11.24;54.19;95710.31;5061492;28;20333;-69
2023/04/15 10:03:21;;;;;;;;;;;;;;;11.60;53.68;95712.16;5056295;28;20535;-69
2023/04/15 10:05:47;;;;;;;;;;;;;;;11.82;53.53;95707.38;5061538;28;20122;-69
2023/04/15 10:08:12;;;;;;;;;;;;;;;12.58;51.97;95710.47;5056026;28;19944;-68
2023/04/15 10:10:38;;;;;;;;;;;;;;;12.89;51.37;95705.13;5061535;28;20029;-68
2023/04/15 10:13:04;;;;;;;;;;;;;;;13.29;50.90;95705.53;5058661;28;19923;-68
2023/04/15 10:15:30;;;;;;;;;;;;;;;13.50;49.01;95705.34;5059649;28;19926;-69
2023/04/15 10:17:56;;;;;;;;;;;;;;;13.60;49.50;95700.94;5043082;28;19923;-68
2023/04/15 10:20:22;;;;;;;;;;;;;;;13.75;49.04;95694.03;5055955;28;20518;-68
2023/04/15 10:22:48;;;;;;;;;;;;;;;13.59;49.36;95691.09;5061058;28;20011;-68
2023/04/15 10:25:14;;;;;;;;;;;;;;;13.62;50.22;95701.28;5055648;28;19924;-69
2023/04/15 10:27:41;;;;;;;;;;;;;;;14.34;48.44;95695.63;5061171;28;20356;-68
2023/04/15 10:30:07;;;;;;;;;;;;;;;14.64;45.71;95704.25;5054842;28;19924;-68
2023/04/15 10:32:33;;;;;;;;;;;;;;;15.08;45.02;95697.63;5060891;28;19917;-70
2023/04/15 10:34:59;;;;;;;;;;;;;;;14.35;46.09;95701.94;5061157;28;20269;-70
2023/04/15 10:37:37;;;;;;;;;;;;;;;15.32;43.98;95692.09;5050933;28;20457;-70
2023/04/15 10:40:23;;;;;;;;;;;;;;;14.57;45.95;95690.56;5059403;28;19924;-69
2023/04/15 10:42:48;;;;;;;;;;;;;;;14.81;46.01;95699.69;5026600;28;19916;-68
2023/04/15 10:45:17;;;;;;;;;;;;;;;15.26;45.02;95702.84;5056233;28;19923;-69
2023/04/15 10:47:42;;;;;;;;;;;;;;;14.82;46.21;95707.53;5061422;28;19927;-69
2023/04/15 10:50:08;;;;;;;;;;;;;;;14.76;46.19;95711.19;5055182;28;19924;-71
2023/04/15 10:52:33;;;;;;;;;;;;;;;14.91;46.50;95710.53;5061782;28;19916;-70
2023/04/15 10:55:13;;;;;;;;;;;;;;;15.54;45.52;95709.03;5066935;28;19916;-70
2023/04/15 10:57:40;;;;;;;;;;;;;;;16.35;42.95;95715.31;5041891;28;19921;-68
2023/04/15 11:00:10;;;;;;;;;;;;;;;16.39;41.53;95707.72;5055916;28;19917;-69
2023/04/15 11:02:46;;;;;;;;;;;;;;;16.62;39.14;95715.13;5060039;28;19917;-69
2023/04/15 11:05:12;;;;;;;;;;;;;;;16.44;39.37;95710.75;5059924;28;19916;-69
2023/04/15 11:07:50;;;;;;;;;;;;;;;16.03;40.77;95712.03;5066507;28;20403;-69
2023/04/15 11:10:24;;;;;;;;;;;;;;;16.76;39.70;95714.78;5055856;28;19920;-67
2023/04/15 11:12:55;;;;;;;;;;;;;;;16.13;41.40;95713.00;5061332;28;20363;-68
2023/04/15 11:15:50;;;;;;;;;;;;;;;15.68;43.65;95705.22;5055740;28;19926;-68
2023/04/15 11:18:16;;;;;;;;;;;;;;;14.67;44.19;95712.47;5042400;28;20023;-69
2023/04/15 11:20:43;;;;;;;;;;;;;;;14.69;44.04;95717.56;5061051;28;20003;-68
2023/04/15 11:23:09;;;;;;;;;;;;;;;14.53;45.36;95712.66;5056103;28;19916;-69
2023/04/15 11:25:36;;;;;;;;;;;;;;;15.14;45.92;95713.69;5061281;28;19916;-67
2023/04/15 11:28:02;;;;;;;;;;;;;;;15.47;44.49;95715.47;5061090;28;19970;-67
2023/04/15 11:30:28;;;;;;;;;;;;;;;15.29;43.54;95721.31;5059585;28;19921;-68
2023/04/15 11:32:56;;;;;;;;;;;;;;;14.29;48.13;95720.88;5065493;28;19920;-67
2023/04/15 11:35:21;;;;;;;;;;;;;;;14.84;45.67;95721.69;5059852;28;20312;-69
2023/04/15 11:37:48;;;;;;;;;;;;;;;15.01;45.23;95725.34;5046039;28;20495;-68
2023/04/15 11:40:16;;;;;;;;;;;;;;;13.20;49.60;95728.03;5058278;28;19920;-67
2023/04/15 11:42:41;;;;;;;;;;;;;;;12.96;50.54;95725.13;5064461;28;19916;-68
2023/04/15 11:45:14;;;;;;;;;;;;;;;14.26;46.65;95727.25;5059705;28;19955;-67
2023/04/15 11:47:40;;;;;;;;;;;;;;;15.03;44.46;95725.69;5066034;28;20418;-68
2023/04/15 11:50:15;;;;;;;;;;;;;;;14.75;43.66;95726.16;5057982;28;20019;-68
2023/04/15 11:52:57;;;;;;;;;;;;;;;14.33;45.99;95723.59;5047978;28;19958;-67
2023/04/15 11:55:23;;;;;;;;;;;;;;;14.71;43.86;95726.19;5060705;28;20507;-68
2023/04/15 11:58:07;;;;;;;;;;;;;;;14.30;44.00;95727.97;5071860;28;19920;-69
2023/04/15 12:00:32;;;;;;;;;;;;;;;14.27;44.50;95733.50;5078372;28;20563;-69
2023/04/15 12:03:13;;;;;;;;;;;;;;;13.98;44.34;95741.38;5065269;28;20010;-69
2023/04/15 12:05:57;;;;;;;;;;;;;;;13.80;44.92;95750.63;5080902;28;19963;-69
2023/04/15 12:08:22;;;;;;;;;;;;;;;13.75;45.03;95751.84;5083945;28;20326;-68
2023/04/15 12:10:47;;;;;;;;;;;;;;;14.10;43.93;95760.09;5087714;28;19916;-68
2023/04/15 12:13:13;;;;;;;;;;;;;;;14.19;44.10;95757.63;5079395;28;19916;-68
2023/04/15 12:15:38;;;;;;;;;;;;;;;13.62;45.39;95761.81;5085622;28;19920;-68
2023/04/15 12:18:04;;;;;;;;;;;;;;;13.94;44.26;95761.47;5082280;28;19916;-65
2023/04/15 12:20:30;;;;;;;;;;;;;;;13.97;44.06;95765.34;5085701;28;19920;-69
2023/04/15 12:23:04;;;;;;;;;;;;;;;14.07;42.82;95763.69;5088628;28;19916;-69
2023/04/15 12:25:35;;;;;;;;;;;;;;;14.22;42.38;95767.03;5088715;28;20506;-69
2023/04/15 12:28:00;;;;;;;;;;;;;;;14.12;42.10;95764.00;5098375;28;20008;-68
2023/04/15 12:30:26;;;;;;;;;;;;;;;14.20;41.96;95764.69;5091572;28;19971;-70
2023/04/15 12:32:51;;;;;;;;;;;;;;;14.50;41.18;95779.66;5089689;28;19926;-70
2023/04/15 12:35:18;;;;;;;;;;;;;;;14.58;40.77;95777.59;5063209;28;20264;-70
2023/04/15 12:37:43;;;;;;;;;;;;;;;14.71;39.05;95784.09;5085317;28;19920;-69
2023/04/15 12:40:09;;;;;;;;;;;;;;;14.42;38.40;95790.00;5061968;28;19922;-70
2023/04/15 12:42:34;;;;;;;;;;;;;;;14.19;37.28;95790.66;5085292;28;19958;-70